Fort Benning, GA

1:33 PM EDT on May 30, 2015 (GMT -0400)
RAWS | | Change Station
CLOSE
Current Station
Personal Weather Station
Location: Fort Benning, GA
Elevation: 466 ft
Nearby Weather Stations

Elev 466 ft 32.40 °N, 84.87 °W | Updated 23 minutes ago

Partly Cloudy
Partly Cloudy
88 °F
Feels Like 90 °F
N
6
Wind Variable Wind from SSE
Gusts 15.0 mph

Today
High -- | Low -- °F
--% Chance of Precip.
Yesterday
High -- | Low -- °F
Precip. -- in
6:34 AM 8:40 PM
Waxing Gibbous, 91% visible
Pressure 30.12 in
Visibility 10.0 miles
Clouds Few 4200 ft
Scattered Clouds 7000 ft
Heat Index 90 °F
Dew Point 65 °F
Humidity 46%
Rainfall in
Snow Depth Not available.
UV 10 out of 12
Pollen 5.00 out of 12
Air Quality Not available.
Flu Activity Sporadic
METAR KCSG 301651Z 11007KT 10SM FEW042 SCT070 28/18 A3013 RMK AO2 SLP199 T02830178

More Conditions Fewer Conditions

Pressure 30.12 in
Visibility 10.0 miles
Clouds Few 4200 ft
Scattered Clouds 7000 ft
Heat Index 90 °F
Dew Point 65 °F
Humidity 46%
Rainfall in
Snow Depth Not available.
UV 10 out of 12
Pollen 5.00 out of 12
Air Quality Not available.
Flu Activity Sporadic
METAR KCSG 301651Z 11007KT 10SM FEW042 SCT070 28/18 A3013 RMK AO2 SLP199 T02830178

More Conditions Fewer Conditions

10-Day Weather Forecast

Almanac

Astronomy

May. 30, 2015 Rise Set
Actual Time
Civil Twilight
Nautical Twilight
Astronomical Twilight
Moon
Length of Visible Light
Length of Day
Tomorrow will be .
, % of the Moon is Illuminated

Today's Extremes

State Highs State Lows

Community

WunderPhotos

Upload Photos

1,825,580 photos uploaded!

WunderBlogs® & News

Nearby

Air Quality

  Air Quality AQ Index Pollutant
Not available.

Snow Depth

Station Depth Elevation

Earthquake Activity

City Distance Mag. Time & Date
Minimum magnitude displayed is 2.5.

Coastal Water Temperatures

Place Temperature

Stations

Nearby Weather Stations

Station Location Temp. Windchill Dew Point Humidity Wind Precip. Elev Updated Type